Aéroport de Guadeloupe - Pôle Caraïbes, Guadeloupe

07:06 AST le 30 juillet 2014 (GMT -0400)
Le Raizet (TFFR) Alt. 26 ft | 16.27 °N, 61.53 °W | Change Station

Current weather conditions updated 6 minutes ago

Mostly Cloudy
Nuageux
79 ° F
Paraît 79 ° F
N
6
Vent Variable Vent de ENE

Aujourd’hui il est prévu de faire pratiquement la même température qu’hier. Légère pluie..

Aujourd'hui
Haut(e) -- | Bas -- ° F
--% Risque de précip.
Hier
Haut(e) -- | Bas -- ° F
Precip. -- pouce
5:46 AM 6:38 PM
Lune montante, 11% visible
Pression 30.04 pouce
Visibilité 6.2 Miles terrestres
Nuages Nuageux 1000 ft
Nuageux 3200 ft
Nuageux 7200 ft
Point de rosée 73 ° F
Humidité 83%
Précipitations 0.00 pouce
Profondeur de la couche neigeuse Non disponible.
UV 1 sur 12
Pollen Non disponible.
Qualité de l'air Non disponible.
Flu Activity Non disponible.
METAR TFFR 301100Z AUTO 07005KT 350V110 9999 BKN010 BKN032 BKN072 26/23 Q1017

More Conditions Fewer Conditions

Pression 30.04 pouce
Visibilité 6.2 Miles terrestres
Nuages Nuageux 1000 ft
Nuageux 3200 ft
Nuageux 7200 ft
Point de rosée 73 ° F
Humidité 83%
Précipitations 0.00 pouce
Profondeur de la couche neigeuse Non disponible.
UV 1 sur 12
Pollen Non disponible.
Qualité de l'air Non disponible.
Flu Activity Non disponible.
METAR TFFR 301100Z AUTO 07005KT 350V110 9999 BKN010 BKN032 BKN072 26/23 Q1017

More Conditions Fewer Conditions

10-Day Weather Forecast

Almanac

Astronomie

Jul. 30, 2014 Lever Coucher
Temps réel 05:46 AST 18:38 AST
Crépuscule civil 05:23 AST 19:01 AST
Crépuscule nautique 04:56 AST 19:28 AST
Crépuscule astronomique 04:28 AST 19:55 AST
Lune 08:35 AST 21:00 AST
Durée de lumière visible 13h 37m
Longueur du jour
12h 51m
Tomorrow will be 0m 39s shorter.
Lune montante, 11% of the Moon is Illuminated
Aujourd'hui
Lune montante
août 3
Premier quartier
août 10
Pleine lune
août 17
Dernier quartier
août 25
Nouveau

Les extrêmes de température d’hier

Country Highs Country Lows

Community

WunderPhotos

Upload Photos

1,739,039 Photos téléchargées !

WunderBlogs® & News

Nearby

Qualité de l'air

Not available.

Épaisseur de neige

Not available.

Activité sismique

Ville Distance Mag. Time & Date
No recent earthquake activity has been reported nearby.
Minimum magnitude displayed is 2.5.

Températures des eaux côtières

Lieu Température
Aucun rapport de station

Stations météo à proximité

Emplacement de la station Température indice de chaleur Point de rosée Humidité Vent Precip. Alt. Mise à jour Type
FWI, Sainte Rose 75.7 ° F 74 ° F 75 ° F 99% SSE  à  4.5 mph 0.01 pouce / hr 164 ft 6:53 AM AST Rapid Fire (temps réel)

Show More Stations Show Fewer Stations